Eielson AFB, Alaska
Current Conditions -  °F | °C
As of 9:58 AM on Sunday 23 Nov 2014 (Local Time) from PAEI Reporting Station
Clear Clear  
Wind Chill: -7°   Ceiling: Unl
Heat Index: -7°   Visibility: 10mi
Dew Point: -12°   Wind: 0mph
Humidity: 78%   Direction: NA
Pressure: 29.53"   Gusts: NA
Location:  64.68°N, 147.09°W
Report Text: PAEI 231858Z AUTO 00000KT 10SM CLR M21/M24 A2953 RMK AO2 SLP018 T12141243 $
Loading
Personal Weather Stations






























Interactive Weather Map New forecast layout! Learn more

10-Day Weather Forecast

Advertisements
Track Severe Weather on mobile